Time;durP1;ratioP1;P1;durP2;ratioP2;P2;SDS_P1;SDS_P2;PMS_P1;PMS_P2;Temp;Humidity;BMP_temperature;BMP_pressure;BME280_temperature;BME280_humidity;BME280_pressure;Samples;Min_cycle;Max_cycle;Signal;HPM_P1;HPM_P2
2021/07/12 00:00:23;;;;;;;7.68;5.22;;;24.30;56.30;;;;;;5009480;28;20262;-81
2021/07/12 00:02:50;;;;;;;10.73;5.82;;;24.30;56.40;;;;;;5016959;28;20030;-82
2021/07/12 00:05:16;;;;;;;9.20;5.80;;;24.30;56.60;;;;;;5035096;28;20021;-81
2021/07/12 00:07:42;;;;;;;7.28;5.35;;;24.20;56.70;;;;;;5013996;28;20096;-80
2021/07/12 00:10:11;;;;;;;11.20;5.47;;;24.20;56.80;;;;;;5034628;28;20474;-82
2021/07/12 00:12:38;;;;;;;9.52;5.20;;;24.20;56.90;;;;;;5016792;28;20174;-81
2021/07/12 00:15:06;;;;;;;11.20;5.80;;;24.10;56.80;;;;;;5034252;28;20029;-81
2021/07/12 00:17:32;;;;;;;14.40;5.55;;;24.10;57.00;;;;;;5034388;28;20033;-82
2021/07/12 00:19:58;;;;;;;8.57;5.20;;;24.10;57.10;;;;;;5016259;28;20097;-80
2021/07/12 00:22:25;;;;;;;6.45;5.03;;;24.10;57.10;;;;;;5015133;28;20537;-80
2021/07/12 00:24:51;;;;;;;6.90;5.07;;;24.10;57.20;;;;;;5016000;28;20387;-80
2021/07/12 00:27:17;;;;;;;7.25;5.30;;;24.00;57.50;;;;;;5035159;28;20040;-81
2021/07/12 00:29:43;;;;;;;7.60;5.25;;;24.00;57.50;;;;;;5033871;28;20026;-81
2021/07/12 00:32:09;;;;;;;8.70;4.95;;;24.00;57.50;;;;;;5027886;28;20028;-80
2021/07/12 00:34:35;;;;;;;11.43;5.28;;;23.90;57.50;;;;;;5026342;28;20025;-79
2021/07/12 00:37:01;;;;;;;5.63;4.25;;;23.90;57.70;;;;;;5020185;28;20515;-84
2021/07/12 00:39:27;;;;;;;9.00;4.72;;;;;;;;;;5034432;28;20532;-83
2021/07/12 00:41:53;;;;;;;8.88;4.53;;;23.90;57.80;;;;;;5032367;28;20055;-81
2021/07/12 00:44:19;;;;;;;7.22;4.65;;;23.80;57.80;;;;;;5022841;28;20100;-81
2021/07/12 00:46:45;;;;;;;5.47;4.75;;;23.80;58.20;;;;;;5033712;28;20029;-80
2021/07/12 00:49:11;;;;;;;8.90;4.72;;;23.70;58.30;;;;;;5034635;28;20014;-81
2021/07/12 00:51:37;;;;;;;10.35;5.07;;;23.70;58.60;;;;;;5036375;28;20033;-83
2021/07/12 00:54:04;;;;;;;7.40;5.20;;;23.70;58.70;;;;;;5017706;28;20022;-81
2021/07/12 00:56:30;;;;;;;9.77;5.63;;;23.70;58.70;;;;;;5034485;28;20021;-82
2021/07/12 00:58:56;;;;;;;9.77;5.47;;;23.60;58.90;;;;;;5017613;28;20029;-81
2021/07/12 01:01:22;;;;;;;8.45;4.30;;;23.60;59.10;;;;;;5033667;28;20017;-83
2021/07/12 01:03:48;;;;;;;9.82;5.28;;;23.60;59.00;;;;;;5033530;28;20032;-82
2021/07/12 01:06:14;;;;;;;5.80;4.80;;;23.60;59.00;;;;;;5029256;28;20018;-83
2021/07/12 01:08:40;;;;;;;7.18;5.35;;;23.60;59.10;;;;;;5037062;28;20032;-83
2021/07/12 01:11:30;;;;;;;8.88;5.68;;;23.60;59.10;;;;;;5035459;28;20027;-82
2021/07/12 01:14:18;;;;;;;7.63;5.65;;;23.60;58.80;;;;;;5011062;28;20687;-81
2021/07/12 01:17:02;;;;;;;8.57;5.55;;;23.60;58.80;;;;;;5023210;28;20024;-83
2021/07/12 01:19:50;;;;;;;12.65;5.90;;;23.60;58.60;;;;;;5037736;28;20028;-83
2021/07/12 01:22:25;;;;;;;8.40;5.43;;;23.60;59.00;;;;;;5044270;28;20028;-82
2021/07/12 01:25:29;;;;;;;7.55;5.30;;;23.60;59.30;;;;;;5050325;28;20021;-82
2021/07/12 01:28:16;;;;;;;5.82;4.72;;;23.60;59.30;;;;;;5054810;28;20038;-82
2021/07/12 01:31:16;;;;;;;7.22;4.65;;;23.60;60.00;;;;;;5020242;28;20486;-83
2021/07/12 01:33:57;;;;;;;7.70;5.15;;;23.60;59.60;;;;;;5033651;28;20025;-82
2021/07/12 01:36:25;;;;;;;9.15;5.00;;;23.60;59.80;;;;;;5033458;28;20048;-82
2021/07/12 01:39:28;;;;;;;9.15;5.25;;;23.50;59.90;;;;;;5033413;28;20025;-82
2021/07/12 01:42:03;;;;;;;8.23;4.70;;;23.60;59.80;;;;;;5026349;28;20030;-83
2021/07/12 01:44:32;;;;;;;7.72;5.38;;;23.50;59.90;;;;;;5033898;28;20041;-82
2021/07/12 01:47:08;;;;;;;7.15;5.22;;;23.50;60.10;;;;;;5033712;28;20175;-81
2021/07/12 01:49:55;;;;;;;6.87;5.00;;;23.50;60.20;;;;;;5039654;28;20025;-80
2021/07/12 01:52:47;;;;;;;6.72;5.18;;;23.50;60.20;;;;;;5040422;28;20298;-83
2021/07/12 01:55:52;;;;;;;9.52;5.72;;;23.60;60.00;;;;;;5039345;28;20060;-83
2021/07/12 01:58:29;;;;;;;7.18;5.00;;;23.60;59.70;;;;;;5013525;28;20034;-81
2021/07/12 02:00:55;;;;;;;4.63;4.10;;;23.60;59.80;;;;;;5034515;28;20087;-82
2021/07/12 02:03:22;;;;;;;13.02;5.05;;;23.60;59.70;;;;;;5016453;28;20026;-80
2021/07/12 02:05:50;;;;;;;7.32;4.35;;;23.60;59.60;;;;;;5032768;28;20022;-80
2021/07/12 02:08:21;;;;;;;6.35;4.53;;;23.60;59.40;;;;;;5032672;28;20030;-80
2021/07/12 02:10:50;;;;;;;6.18;4.57;;;23.60;59.30;;;;;;5018862;28;20352;-79
2021/07/12 02:13:18;;;;;;;8.07;4.70;;;23.60;59.30;;;;;;5032708;28;20429;-80
2021/07/12 02:15:47;;;;;;;6.80;4.50;;;23.60;59.20;;;;;;5019945;28;20022;-81
2021/07/12 02:18:14;;;;;;;6.63;4.40;;;23.60;59.10;;;;;;5032276;28;20014;-78
2021/07/12 02:20:43;;;;;;;6.53;4.63;;;23.60;59.00;;;;;;5032441;28;20383;-80
2021/07/12 02:23:10;;;;;;;5.05;4.10;;;23.60;58.90;;;;;;5032318;28;20159;-79
2021/07/12 02:25:37;;;;;;;7.20;4.57;;;23.70;58.80;;;;;;5032446;28;20032;-80
2021/07/12 02:28:04;;;;;;;7.65;5.00;;;23.70;58.80;;;;;;5032110;28;20107;-80
2021/07/12 02:30:30;;;;;;;6.90;5.35;;;23.70;58.80;;;;;;5033136;28;20021;-80
2021/07/12 02:32:57;;;;;;;8.88;5.03;;;23.70;58.90;;;;;;5035989;28;20025;-82
2021/07/12 02:35:23;;;;;;;6.30;4.57;;;23.80;59.00;;;;;;5036294;28;20112;-80
2021/07/12 02:37:50;;;;;;;7.17;4.90;;;23.80;59.20;;;;;;5036254;28;20029;-81
2021/07/12 02:40:19;;;;;;;6.07;4.55;;;23.80;59.20;;;;;;5036004;28;20021;-81
2021/07/12 02:42:48;;;;;;;8.00;4.93;;;23.90;59.50;;;;;;5036071;28;20483;-79
2021/07/12 02:45:15;;;;;;;7.60;5.07;;;24.00;59.00;;;;;;5035719;28;20025;-80
2021/07/12 02:47:41;;;;;;;5.63;4.88;;;24.00;59.90;;;;;;5035871;28;20149;-81
2021/07/12 02:50:09;;;;;;;12.15;5.93;;;24.10;59.60;;;;;;5035741;28;20025;-80
2021/07/12 02:52:53;;;;;;;11.32;5.30;;;24.10;59.10;;;;;;5036174;28;20021;-81
2021/07/12 02:55:19;;;;;;;7.30;5.57;;;24.20;58.90;;;;;;5035845;28;20013;-80
2021/07/12 02:57:45;;;;;;;7.60;5.80;;;24.20;58.30;;;;;;5035935;28;20025;-79
2021/07/12 03:00:12;;;;;;;10.10;4.82;;;24.30;58.40;;;;;;5035416;28;20034;-80
2021/07/12 03:02:40;;;;;;;7.18;5.43;;;24.40;58.30;;;;;;5035765;28;20026;-78
2021/07/12 03:05:06;;;;;;;;;;;24.50;58.40;;;;;;5035965;28;20017;-79
2021/07/12 03:07:44;;;;;;;9.65;5.72;;;24.50;57.70;;;;;;5035383;28;19913;-80
2021/07/12 03:10:15;;;;;;;10.70;5.07;;;24.60;57.60;;;;;;5035859;28;20475;-80
2021/07/12 03:12:54;;;;;;;8.07;4.80;;;24.60;57.00;;;;;;5017380;28;20071;-78
2021/07/12 03:15:29;;;;;;;8.50;5.38;;;24.70;56.80;;;;;;5035544;28;20026;-79
2021/07/12 03:17:56;;;;;;;8.35;4.75;;;24.70;56.70;;;;;;5035156;28;20018;-80
2021/07/12 03:20:24;;;;;;;9.50;4.95;;;24.80;56.60;;;;;;5035318;28;20100;-79
2021/07/12 03:22:54;;;;;;;8.40;5.50;;;24.90;56.30;;;;;;5035310;28;20021;-79
2021/07/12 03:25:28;;;;;;;10.43;4.95;;;25.00;56.20;;;;;;5035238;28;20082;-79
2021/07/12 03:27:57;;;;;;;7.55;4.68;;;25.10;55.70;;;;;;5035014;28;20038;-82
2021/07/12 03:30:26;;;;;;;8.00;5.32;;;25.10;55.40;;;;;;5035050;28;20025;-81
2021/07/12 03:32:53;;;;;;;12.15;5.50;;;25.20;55.20;;;;;;5034662;28;20025;-82
2021/07/12 03:35:21;;;;;;;6.20;4.35;;;25.20;55.20;;;;;;5034955;28;20018;-80
2021/07/12 03:37:49;;;;;;;7.60;5.05;;;25.20;54.50;;;;;;5013904;28;20034;-79
2021/07/12 03:40:15;;;;;;;8.88;5.07;;;25.30;54.50;;;;;;5034280;28;20375;-80
2021/07/12 03:42:42;;;;;;;7.10;4.43;;;25.30;54.40;;;;;;5033771;28;20018;-80
2021/07/12 03:45:09;;;;;;;9.43;4.85;;;25.40;54.30;;;;;;5034517;28;20021;-80
2021/07/12 03:47:37;;;;;;;10.90;7.30;;;25.50;54.00;;;;;;5035378;28;20124;-79
2021/07/12 03:50:10;;;;;;;20.02;13.68;;;25.60;53.80;;;;;;5017220;28;20067;-82
2021/07/12 03:52:43;;;;;;;9.27;5.07;;;25.70;53.70;;;;;;5034959;28;20067;-82
2021/07/12 03:55:10;;;;;;;7.57;4.95;;;25.70;53.20;;;;;;5020593;28;20030;-82
2021/07/12 03:57:36;;;;;;;;;;;25.80;52.30;;;;;;5035177;28;20449;-80
2021/07/12 04:00:04;;;;;;;10.07;5.33;;;25.70;52.70;;;;;;5017065;28;19909;-81
2021/07/12 04:02:29;;;;;;;7.25;5.18;;;25.60;53.30;;;;;;5016923;28;20036;-82
2021/07/12 04:04:55;;;;;;;6.35;5.25;;;25.70;53.00;;;;;;5016613;28;20441;-81
2021/07/12 04:07:21;;;;;;;9.68;5.85;;;25.70;52.50;;;;;;5034003;28;20034;-81
2021/07/12 04:09:47;;;;;;;13.95;9.27;;;25.70;53.20;;;;;;5034840;28;20434;-82
2021/07/12 04:12:13;;;;;;;11.85;5.90;;;25.70;53.80;;;;;;5034274;28;20029;-81
2021/07/12 04:14:39;;;;;;;11.48;5.15;;;25.70;53.40;;;;;;5016080;28;20049;-81
2021/07/12 04:17:08;;;;;;;8.70;5.80;;;25.90;53.00;;;;;;5034070;28;20364;-81
2021/07/12 04:19:56;;;;;;;8.45;5.85;;;25.90;53.00;;;;;;5016147;28;20475;-81
2021/07/12 04:22:23;;;;;;;10.48;5.35;;;25.90;53.20;;;;;;5034212;28;20018;-80
2021/07/12 04:24:49;;;;;;;7.47;5.85;;;26.00;53.20;;;;;;5034163;28;20049;-82
2021/07/12 04:27:15;;;;;;;10.90;5.45;;;26.00;53.00;;;;;;5034199;28;20040;-81
2021/07/12 04:29:41;;;;;;;7.00;5.43;;;26.00;52.80;;;;;;5034095;28;20018;-83
2021/07/12 04:32:08;;;;;;;11.05;5.55;;;26.10;52.40;;;;;;5013064;28;20033;-81
2021/07/12 04:34:34;;;;;;;9.87;5.37;;;26.20;52.40;;;;;;5033121;28;20478;-82
2021/07/12 04:37:00;;;;;;;10.65;5.32;;;26.30;52.10;;;;;;5034428;28;20341;-82
2021/07/12 04:39:25;;;;;;;9.23;5.65;;;26.40;52.00;;;;;;5034463;28;20037;-81
2021/07/12 04:41:52;;;;;;;10.52;5.82;;;26.40;51.90;;;;;;5033825;28;20032;-80
2021/07/12 04:44:18;;;;;;;13.30;6.73;;;26.50;52.10;;;;;;5034212;28;20057;-81
2021/07/12 04:46:44;;;;;;;9.55;6.25;;;26.40;51.90;;;;;;5034088;28;20064;-81
2021/07/12 04:49:11;;;;;;;10.52;5.35;;;26.40;51.70;;;;;;5033790;28;20017;-81
2021/07/12 04:51:38;;;;;;;14.55;6.38;;;26.40;51.30;;;;;;5033670;28;20437;-81
2021/07/12 04:54:04;;;;;;;12.43;8.23;;;26.40;51.70;;;;;;5033705;28;20023;-80
2021/07/12 04:56:30;;;;;;;12.45;6.10;;;26.40;52.30;;;;;;5033283;28;20029;-80
2021/07/12 04:58:56;;;;;;;10.25;6.32;;;26.50;52.00;;;;;;5033052;28;20025;-81
2021/07/12 05:01:24;;;;;;;8.38;5.57;;;26.40;52.00;;;;;;5033261;28;20010;-81
2021/07/12 05:03:52;;;;;;;;;;;26.40;51.90;;;;;;5035251;28;20045;-83
2021/07/12 05:06:18;;;;;;;11.68;6.70;;;26.40;52.00;;;;;;5017196;28;19958;-80
2021/07/12 05:08:44;;;;;;;9.63;6.90;;;26.40;52.20;;;;;;5033500;28;20037;-81
2021/07/12 05:11:10;;;;;;;7.78;6.35;;;26.60;52.10;;;;;;5033016;28;20502;-80
2021/07/12 05:13:37;;;;;;;12.27;6.47;;;27.00;51.20;;;;;;5033346;28;20053;-81
2021/07/12 05:16:03;;;;;;;12.88;6.57;;;27.70;50.00;;;;;;5016430;28;20113;-82
2021/07/12 05:18:29;;;;;;;10.70;6.73;;;28.60;47.80;;;;;;5033812;28;20128;-82
2021/07/12 05:20:56;;;;;;;15.10;5.88;;;29.40;46.20;;;;;;5035681;28;20057;-83
2021/07/12 05:23:22;;;;;;;13.73;5.90;;;30.10;44.80;;;;;;5036224;28;20520;-83
2021/07/12 05:25:48;;;;;;;7.05;4.78;;;31.10;43.80;;;;;;5017820;28;20064;-82
2021/07/12 05:28:14;;;;;;;9.30;4.90;;;31.60;41.30;;;;;;5034244;28;20030;-83
2021/07/12 05:30:40;;;;;;;10.90;6.00;;;31.90;40.90;;;;;;5033771;28;20463;-82
2021/07/12 05:33:06;;;;;;;9.27;5.20;;;32.30;40.60;;;;;;5015694;28;20036;-82
2021/07/12 05:35:33;;;;;;;9.40;4.97;;;32.80;39.90;;;;;;5033453;28;20075;-80
2021/07/12 05:37:58;;;;;;;9.02;5.47;;;33.00;38.90;;;;;;5033294;28;20017;-81
2021/07/12 05:40:24;;;;;;;9.07;5.83;;;33.20;38.90;;;;;;5032662;28;20113;-81
2021/07/12 05:42:50;;;;;;;6.80;5.83;;;33.50;38.40;;;;;;5033227;28;20166;-83
2021/07/12 05:45:16;;;;;;;11.10;5.43;;;34.10;38.00;;;;;;5032921;28;20443;-82
2021/07/12 05:47:43;;;;;;;9.85;6.05;;;34.40;37.20;;;;;;5033185;28;20067;-83
2021/07/12 05:50:10;;;;;;;7.28;5.90;;;35.00;36.50;;;;;;5015005;28;20749;-83
2021/07/12 05:52:37;;;;;;;5.20;4.35;;;35.60;36.00;;;;;;5014785;28;20036;-82
2021/07/12 05:55:04;;;;;;;10.52;4.53;;;35.90;35.50;;;;;;5032227;28;20491;-82
2021/07/12 05:57:30;;;;;;;7.90;4.30;;;36.70;34.30;;;;;;5033633;28;20087;-81
2021/07/12 05:59:56;;;;;;;7.95;4.18;;;36.60;33.70;;;;;;5033632;28;20033;-84
2021/07/12 06:02:22;;;;;;;7.28;4.03;;;36.90;34.00;;;;;;5032814;28;20026;-85
2021/07/12 06:04:48;;;;;;;8.25;4.63;;;37.40;33.10;;;;;;5032958;28;20021;-83
2021/07/12 06:07:14;;;;;;;6.90;3.83;;;37.30;32.90;;;;;;5001670;28;20060;-84
2021/07/12 06:09:40;;;;;;;6.57;3.55;;;36.90;32.40;;;;;;5014840;28;20053;-84
2021/07/12 06:12:09;;;;;;;6.07;4.30;;;37.40;32.50;;;;;;5015236;28;20043;-86
2021/07/12 06:14:35;;;;;;;9.02;4.70;;;38.80;31.90;;;;;;5013383;28;20151;-83
2021/07/12 06:17:02;;;;;;;5.03;3.65;;;39.70;31.20;;;;;;4999319;28;20472;-82
2021/07/12 06:19:28;;;;;;;4.05;3.38;;;40.00;29.90;;;;;;5012197;28;20053;-83
2021/07/12 06:21:54;;;;;;;6.72;3.78;;;39.60;29.90;;;;;;5012943;28;20060;-83
2021/07/12 06:24:19;;;;;;;5.07;3.60;;;40.30;30.00;;;;;;5012209;28;20030;-83
2021/07/12 06:26:45;;;;;;;9.57;3.70;;;40.80;29.70;;;;;;5012494;28;20546;-83
2021/07/12 06:29:11;;;;;;;9.45;3.70;;;40.20;29.50;;;;;;4995280;28;20026;-83
2021/07/12 06:31:37;;;;;;;10.77;3.60;;;40.50;29.30;;;;;;5013687;28;20026;-82
2021/07/12 06:34:03;;;;;;;11.60;4.53;;;41.20;28.90;;;;;;5000398;28;20067;-82
2021/07/12 06:36:29;;;;;;;17.55;4.93;;;41.70;28.80;;;;;;5012602;28;20103;-84
2021/07/12 06:38:55;;;;;;;9.20;4.32;;;42.30;28.80;;;;;;5013111;28;20456;-84
2021/07/12 06:41:21;;;;;;;5.30;3.75;;;42.50;28.20;;;;;;4995335;28;20439;-82
2021/07/12 06:43:47;;;;;;;4.13;2.60;;;42.70;27.70;;;;;;5012883;28;20027;-82
2021/07/12 06:46:15;;;;;;;5.10;3.38;;;41.80;27.40;;;;;;5015173;28;20491;-81
2021/07/12 06:48:41;;;;;;;5.20;4.03;;;41.40;28.20;;;;;;5014339;28;20141;-86
2021/07/12 06:51:06;;;;;;;;;;;41.60;28.40;;;;;;5014953;28;20447;-81
2021/07/12 06:53:32;;;;;;;6.65;3.53;;;42.10;28.70;;;;;;4995366;28;20539;-84
2021/07/12 06:55:58;;;;;;;;;;;43.40;27.70;;;;;;5016699;28;20034;-84
2021/07/12 06:58:24;;;;;;;4.35;2.80;;;43.70;28.00;;;;;;5008935;28;19913;-85
2021/07/12 07:00:49;;;;;;;;;;;43.50;26.90;;;;;;5016303;28;20028;-83
2021/07/12 07:03:15;;;;;;;8.02;3.85;;;43.10;27.50;;;;;;5015998;28;19910;-83
2021/07/12 07:05:41;;;;;;;;;;;42.90;27.40;;;;;;5015332;28;20476;-85
2021/07/12 07:08:07;;;;;;;7.35;3.28;;;42.70;27.70;;;;;;5013655;28;19914;-84
2021/07/12 07:10:32;;;;;;;;;;;42.30;27.70;;;;;;5027133;28;20475;-84
2021/07/12 07:12:58;;;;;;;7.43;3.78;;;43.00;28.20;;;;;;5014887;28;19913;-84
2021/07/12 07:15:24;;;;;;;;;;;43.80;27.10;;;;;;5015605;28;20032;-85
2021/07/12 07:17:50;;;;;;;3.45;2.78;;;43.10;27.50;;;;;;5017236;28;19956;-84
2021/07/12 07:20:16;;;;;;;6.68;3.35;;;42.80;27.10;;;;;;5018882;28;20056;-85
2021/07/12 07:22:42;;;;;;;5.18;3.58;;;43.80;27.10;;;;;;5037105;28;20025;-86
2021/07/12 07:25:08;;;;;;;4.68;3.47;;;43.70;27.20;;;;;;5036888;28;20371;-84
2021/07/12 07:27:36;;;;;;;5.88;3.40;;;43.90;27.10;;;;;;5036358;28;20087;-85
2021/07/12 07:30:02;;;;;;;8.30;3.40;;;44.10;26.90;;;;;;5014476;28;20490;-84
2021/07/12 07:32:28;;;;;;;8.25;4.10;;;43.80;27.10;;;;;;5027233;28;20105;-85
2021/07/12 07:34:54;;;;;;;7.53;4.10;;;45.10;27.10;;;;;;5018118;28;20506;-85
2021/07/12 07:37:20;;;;;;;5.00;3.75;;;45.90;26.10;;;;;;5026510;28;20038;-85
2021/07/12 07:39:46;;;;;;;5.43;3.47;;;45.70;26.10;;;;;;5031849;28;20467;-84
2021/07/12 07:42:12;;;;;;;7.30;3.47;;;45.90;26.10;;;;;;5037034;28;20018;-85
2021/07/12 07:44:38;;;;;;;6.63;3.63;;;45.40;26.10;;;;;;5017976;28;20079;-85
2021/07/12 07:47:04;;;;;;;6.28;4.25;;;46.40;26.10;;;;;;5035477;28;20069;-84
2021/07/12 07:49:31;;;;;;;6.47;4.55;;;47.50;25.70;;;;;;5019508;28;20030;-85
2021/07/12 07:51:58;;;;;;;6.63;3.17;;;47.00;25.10;;;;;;5040766;28;20017;-84
2021/07/12 07:54:24;;;;;;;11.45;5.35;;;46.90;25.30;;;;;;5038234;28;20531;-83
2021/07/12 07:56:50;;;;;;;7.75;3.47;;;46.60;25.30;;;;;;5033488;28;20076;-84
2021/07/12 07:59:16;;;;;;;10.18;4.03;;;46.40;25.60;;;;;;5023775;28;20060;-86
2021/07/12 08:01:42;;;;;;;5.72;3.53;;;46.90;25.80;;;;;;5036185;28;20021;-85
2021/07/12 08:04:08;;;;;;;6.75;3.20;;;47.30;25.50;;;;;;5041906;28;20029;-85
2021/07/12 08:06:34;;;;;;;6.85;4.05;;;47.00;25.60;;;;;;5035568;28;20487;-85
2021/07/12 08:09:00;;;;;;;6.80;4.03;;;47.50;25.30;;;;;;5017248;28;20038;-82
2021/07/12 08:11:26;;;;;;;6.70;3.00;;;47.40;25.30;;;;;;5034813;28;20092;-86
2021/07/12 08:13:52;;;;;;;3.42;2.70;;;47.50;25.00;;;;;;5013748;28;20514;-85
2021/07/12 08:16:18;;;;;;;6.20;3.00;;;46.90;24.60;;;;;;5032915;28;20379;-83
2021/07/12 08:18:44;;;;;;;6.57;3.30;;;47.00;24.80;;;;;;5035477;28;20018;-83
2021/07/12 08:21:13;;;;;;;5.85;2.90;;;48.10;24.90;;;;;;5035099;28;20062;-84
2021/07/12 08:23:43;;;;;;;3.83;2.42;;;49.00;24.40;;;;;;5015530;28;20049;-85
2021/07/12 08:26:12;;;;;;;6.80;2.83;;;49.90;24.10;;;;;;5030314;28;20110;-85
2021/07/12 08:28:40;;;;;;;3.70;3.10;;;50.50;23.90;;;;;;5034059;28;20120;-84
2021/07/12 08:31:06;;;;;;;6.78;3.13;;;50.50;23.70;;;;;;5017417;28;20491;-85
2021/07/12 08:33:32;;;;;;;5.45;3.05;;;49.80;23.60;;;;;;5036010;28;20105;-86
2021/07/12 08:35:58;;;;;;;5.88;3.05;;;49.20;23.80;;;;;;5036146;28;20502;-85
2021/07/12 08:38:24;;;;;;;6.47;3.10;;;49.00;24.00;;;;;;5035522;28;20554;-85
2021/07/12 08:40:55;;;;;;;4.45;3.30;;;49.10;24.00;;;;;;5016933;28;20506;-83
2021/07/12 08:43:22;;;;;;;5.30;3.55;;;49.20;23.70;;;;;;5034698;28;20418;-85
2021/07/12 08:45:48;;;;;;;6.32;3.22;;;48.90;24.00;;;;;;5034665;28;20022;-87
2021/07/12 08:48:15;;;;;;;7.85;2.83;;;49.60;24.10;;;;;;5014197;28;20041;-83
2021/07/12 08:50:41;;;;;;;5.53;3.03;;;50.20;24.00;;;;;;5034684;28;20382;-86
2021/07/12 08:53:07;;;;;;;5.63;3.40;;;50.70;23.60;;;;;;5016563;28;20021;-84
2021/07/12 08:55:33;;;;;;;5.93;3.08;;;51.20;23.50;;;;;;5034465;28;20026;-84
2021/07/12 08:58:03;;;;;;;4.13;2.90;;;50.60;23.40;;;;;;5035022;28;20026;-86
2021/07/12 09:00:40;;;;;;;8.48;3.72;;;48.70;23.50;;;;;;5030694;28;20025;-85
2021/07/12 09:03:28;;;;;;;5.93;3.60;;;48.20;24.50;;;;;;5027210;28;20044;-85
2021/07/12 09:06:14;;;;;;;7.80;2.70;;;48.50;24.00;;;;;;5039597;28;20056;-85
2021/07/12 09:08:46;;;;;;;6.10;3.55;;;48.50;23.90;;;;;;5036452;28;20037;-85
2021/07/12 09:11:15;;;;;;;9.13;3.63;;;49.10;23.90;;;;;;5034047;28;20013;-84
2021/07/12 09:14:10;;;;;;;13.35;4.28;;;49.80;23.90;;;;;;5033766;28;20111;-83
2021/07/12 09:16:56;;;;;;;7.68;4.40;;;50.40;23.90;;;;;;5025196;28;20192;-85
2021/07/12 09:19:32;;;;;;;8.82;3.60;;;49.40;24.00;;;;;;5033897;28;20021;-84
2021/07/12 09:22:12;;;;;;;6.72;3.70;;;49.50;24.10;;;;;;5034404;28;20022;-85
2021/07/12 09:24:49;;;;;;;8.48;3.78;;;47.50;24.00;;;;;;5016569;28;20025;-84
2021/07/12 09:27:23;;;;;;;6.90;3.70;;;45.70;24.80;;;;;;5035286;28;20033;-86
2021/07/12 09:29:51;;;;;;;6.53;4.35;;;45.50;25.30;;;;;;5034074;28;20145;-83
2021/07/12 09:32:19;;;;;;;6.85;3.58;;;46.40;25.10;;;;;;5024133;28;20040;-84
2021/07/12 09:34:47;;;;;;;7.72;4.45;;;47.20;24.60;;;;;;5033916;28;20022;-83
2021/07/12 09:37:16;;;;;;;8.00;3.67;;;47.60;24.50;;;;;;5033952;28;20359;-85
2021/07/12 09:39:47;;;;;;;8.35;3.90;;;48.10;24.10;;;;;;5033071;28;20025;-85
2021/07/12 09:42:17;;;;;;;6.07;4.22;;;48.20;24.10;;;;;;5033348;28;20071;-85
2021/07/12 09:44:47;;;;;;;4.70;3.95;;;48.30;24.40;;;;;;5015697;28;20029;-86
2021/07/12 09:47:19;;;;;;;5.90;3.50;;;48.30;24.40;;;;;;5012738;28;20348;-85
2021/07/12 09:49:47;;;;;;;5.47;3.42;;;47.60;24.40;;;;;;5027440;28;20058;-85
2021/07/12 09:52:16;;;;;;;6.85;4.00;;;46.90;24.90;;;;;;5035551;28;20021;-86
2021/07/12 09:54:43;;;;;;;9.13;3.83;;;47.30;24.90;;;;;;5004515;28;20021;-84
2021/07/12 09:57:15;;;;;;;7.20;3.47;;;47.80;24.70;;;;;;5014067;28;20084;-85
2021/07/12 10:00:00;;;;;;;4.97;3.20;;;47.00;24.70;;;;;;5030844;28;20017;-84
2021/07/12 10:02:29;;;;;;;;;;;47.10;25.10;;;;;;5040319;28;20029;-85
2021/07/12 10:05:09;;;;;;;7.55;3.33;;;47.30;25.10;;;;;;5023152;28;19905;-82
2021/07/12 10:07:35;;;;;;;7.47;3.28;;;46.40;25.00;;;;;;5024132;28;20038;-84
2021/07/12 10:10:13;;;;;;;9.85;3.63;;;45.90;25.10;;;;;;5041750;28;20052;-84
2021/07/12 10:12:40;;;;;;;4.15;3.30;;;46.20;25.40;;;;;;5029618;28;20049;-83
2021/07/12 10:15:07;;;;;;;5.80;4.05;;;46.60;25.20;;;;;;5018349;28;20030;-84
2021/07/12 10:17:33;;;;;;;5.22;3.85;;;47.20;25.00;;;;;;5013264;28;20026;-85
2021/07/12 10:19:59;;;;;;;4.85;4.10;;;46.70;24.70;;;;;;5008656;28;20081;-84
2021/07/12 10:22:32;;;;;;;5.97;3.67;;;44.90;25.50;;;;;;4996046;28;20115;-86
2021/07/12 10:25:06;;;;;;;8.95;3.63;;;45.30;25.90;;;;;;5013413;28;20018;-86
2021/07/12 10:27:32;;;;;;;5.90;4.03;;;46.20;25.80;;;;;;5013121;28;20037;-84
2021/07/12 10:30:32;;;;;;;8.40;3.67;;;46.60;25.30;;;;;;5015356;28;20487;-85
2021/07/12 10:33:06;;;;;;;6.20;3.67;;;45.20;25.40;;;;;;4997094;28;20033;-86
2021/07/12 10:35:42;;;;;;;9.00;4.53;;;43.30;25.70;;;;;;5008413;28;20029;-85
2021/07/12 10:38:09;;;;;;;;;;;41.10;26.60;;;;;;5017144;28;20022;-85
2021/07/12 10:41:01;;;;;;;5.85;4.57;;;40.10;27.30;;;;;;5014542;28;19906;-84
2021/07/12 10:43:42;;;;;;;9.38;4.72;;;38.40;29.30;;;;;;5011210;28;20034;-84
2021/07/12 10:46:09;;;;;;;5.53;4.90;;;37.40;29.60;;;;;;5013635;28;20056;-85
2021/07/12 10:48:37;;;;;;;7.68;5.15;;;36.80;30.90;;;;;;5012807;28;20041;-84
2021/07/12 10:51:23;;;;;;;9.18;5.20;;;36.10;32.10;;;;;;4995296;28;20072;-85
2021/07/12 10:53:58;;;;;;;9.45;6.45;;;35.40;32.50;;;;;;5004863;28;20025;-83
2021/07/12 10:56:24;;;;;;;5.75;4.95;;;;;;;;;;5016495;28;20032;-85
2021/07/12 10:58:51;;;;;;;5.40;4.78;;;34.10;33.90;;;;;;5016723;28;20064;-86
2021/07/12 11:01:19;;;;;;;;;;;33.40;35.90;;;;;;5017518;28;20443;-83
2021/07/12 11:03:49;;;;;;;7.53;5.40;;;33.20;35.10;;;;;;5017163;28;19906;-83
2021/07/12 11:06:17;;;;;;;8.07;5.53;;;33.10;36.10;;;;;;5016835;28;20463;-84
2021/07/12 11:08:47;;;;;;;9.38;5.68;;;33.00;36.10;;;;;;5017679;28;20141;-86
2021/07/12 11:11:39;;;;;;;8.23;5.15;;;32.80;35.80;;;;;;5016293;28;20017;-84
2021/07/12 11:14:09;;;;;;;7.70;5.95;;;32.30;36.50;;;;;;4998439;28;20072;-81
2021/07/12 11:16:45;;;;;;;7.63;5.35;;;32.30;37.60;;;;;;5003907;28;20030;-83
2021/07/12 11:19:28;;;;;;;6.30;5.18;;;32.50;36.80;;;;;;5016036;28;20463;-84
2021/07/12 11:22:12;;;;;;;7.28;4.70;;;32.60;36.70;;;;;;5004773;28;20029;-84
2021/07/12 11:24:38;;;;;;;7.53;4.90;;;32.70;36.60;;;;;;5016691;28;20021;-85
2021/07/12 11:27:06;;;;;;;9.15;6.07;;;32.70;36.80;;;;;;5002081;28;20030;-83
2021/07/12 11:29:34;;;;;;;8.98;5.10;;;32.90;36.20;;;;;;5015853;28;20064;-85
2021/07/12 11:32:02;;;;;;;5.85;5.25;;;32.90;36.40;;;;;;5015741;28;20022;-84
2021/07/12 11:34:49;;;;;;;6.57;5.88;;;32.90;36.20;;;;;;5016206;28;20037;-84
2021/07/12 11:37:24;;;;;;;6.07;5.18;;;32.70;35.70;;;;;;5016420;28;20382;-85
2021/07/12 11:39:59;;;;;;;7.25;5.15;;;32.60;36.20;;;;;;5017595;28;20032;-83
2021/07/12 11:42:27;;;;;;;5.30;4.80;;;;;;;;;;5017414;28;20029;-84
2021/07/12 11:44:56;;;;;;;6.50;5.55;;;32.60;36.10;;;;;;5016295;28;20041;-86
2021/07/12 11:47:22;;;;;;;8.82;5.43;;;;;;;;;;5016024;28;20087;-85
2021/07/12 11:49:49;;;;;;;17.33;5.60;;;;;;;;;;4997977;28;20030;-84
2021/07/12 11:52:15;;;;;;;9.55;5.88;;;;;;;;;;5001951;28;20018;-85
2021/07/12 11:54:41;;;;;;;5.37;4.87;;;;;;;;;;5015562;28;20030;-84
2021/07/12 11:57:15;;;;;;;8.47;4.97;;;;;;;;;;5015116;28;20018;-86
2021/07/12 11:59:45;;;;;;;7.10;4.97;;;32.10;36.60;;;;;;5016597;28;20387;-83
2021/07/12 12:02:14;;;;;;;9.18;5.75;;;31.90;36.30;;;;;;5017069;28;20484;-86
2021/07/12 12:04:59;;;;;;;11.27;5.45;;;31.60;37.00;;;;;;5024091;28;20031;-83
2021/07/12 12:07:37;;;;;;;8.60;5.18;;;31.50;37.10;;;;;;5017691;28;20068;-86
2021/07/12 12:10:08;;;;;;;7.50;5.18;;;31.60;37.20;;;;;;5028364;28;20025;-84
2021/07/12 12:12:46;;;;;;;11.43;5.78;;;31.60;37.10;;;;;;5002800;28;20100;-84
2021/07/12 12:15:16;;;;;;;7.13;5.00;;;31.80;37.10;;;;;;5016972;28;20069;-84
2021/07/12 12:17:56;;;;;;;6.95;5.03;;;31.80;36.70;;;;;;4997299;28;20026;-84
2021/07/12 12:20:38;;;;;;;6.10;5.30;;;31.80;37.20;;;;;;5005946;28;20088;-83
2021/07/12 12:23:08;;;;;;;8.02;5.35;;;31.60;36.80;;;;;;4999957;28;20476;-84
2021/07/12 12:25:42;;;;;;;7.40;5.65;;;31.60;37.40;;;;;;5015122;28;20096;-85
2021/07/12 12:28:08;;;;;;;5.50;5.00;;;31.60;37.10;;;;;;4993996;28;20031;-85
2021/07/12 12:30:36;;;;;;;7.10;5.30;;;31.80;37.10;;;;;;5005220;28;20090;-85
2021/07/12 12:33:03;;;;;;;9.65;5.40;;;31.70;36.80;;;;;;5014938;28;20117;-83
2021/07/12 12:35:31;;;;;;;7.75;5.28;;;31.60;37.20;;;;;;4997850;28;20072;-85
2021/07/12 12:38:16;;;;;;;6.60;5.38;;;31.60;37.20;;;;;;4994864;28;20077;-85
2021/07/12 12:40:45;;;;;;;7.95;5.30;;;31.60;36.90;;;;;;5015650;28;20014;-85
2021/07/12 12:43:14;;;;;;;11.02;5.60;;;31.50;36.90;;;;;;5015137;28;20025;-88
2021/07/12 12:46:06;;;;;;;6.93;4.88;;;31.40;37.30;;;;;;5015315;28;20088;-85
2021/07/12 12:48:50;;;;;;;7.40;5.75;;;31.50;37.30;;;;;;5012744;28;20038;-85
2021/07/12 12:51:19;;;;;;;5.50;4.70;;;31.60;37.40;;;;;;4998816;28;20422;-85
2021/07/12 12:53:45;;;;;;;9.23;5.03;;;31.70;36.60;;;;;;5014715;28;20018;-84
2021/07/12 12:56:11;;;;;;;6.45;5.07;;;31.50;36.80;;;;;;5014748;28;20025;-85
2021/07/12 12:58:37;;;;;;;9.90;5.68;;;31.30;36.90;;;;;;5016309;28;20018;-84
2021/07/12 13:01:11;;;;;;;10.15;5.55;;;31.30;37.40;;;;;;5020130;28;20030;-85
2021/07/12 13:03:37;;;;;;;12.18;5.22;;;31.50;37.00;;;;;;5021677;28;20049;-85